AirNav   SIMCOM
 
 1123 users online  

5FL0 Dusty Airpatch Airport
Dade City, Florida, USA

GOING TO DADE CITY?


FAA INFORMATION EFFECTIVE 20 JULY 2017

Location

FAA Identifier: 5FL0
Lat/Long: 28-24-47.0000N / 082-13-24.3000W
28-24.783333N / 082-13.405000W
28.4130556 / -82.2234167
(estimated)
Elevation: 120 ft. / 37 m (estimated)
Variation: 03W (1995)
From city: 3 miles NW of DADE CITY, FL
Time zone: UTC -4 (UTC -5 during Standard Time)
Zip code: 33523

Airport Operations

Airport use: Private use. Permission required prior to landing
Activation date: 11/1999
Control tower: no
ARTCC: MIAMI CENTER
FSS: MIAMI FLIGHT SERVICE STATION
Attendance: UNATNDD
Wind indicator: yes
Segmented circle: no

Airport Communications

WX ASOS at ZPH (12 nm S): 118.975 (813-780-0031)
WX ASOS at BKV (13 nm W): 134.725 (352-799-5881)

Nearby radio navigation aids

VOR radial/distance  VOR name  Freq  Var
LALr336/27.9LAKELAND VORTAC116.0001E
PIEr044/38.9ST PETERSBURG VORTAC116.4005W

 
NDB name  Hdg/Dist  Freq  Var  ID
LEESBURG226/32.733504WLEE .-.. . .

Airport Services

Runway Information

Runway 18/36

Dimensions: 1534 x 100 ft. / 468 x 30 m
Surface: turf, in good condition
Runway edge markings: RY 18/36 MKD WITH TIRES.
RUNWAY 18  RUNWAY 36
Traffic pattern: rightleft
Obstructions: none30 ft. trees, 10 ft. from runway

Airport Ownership and Management from official FAA records

Ownership: Privately-owned
Owner: HERBERT W. RHODE
35731 BLANTON ROAD
DADE CITY, FL 33523-6352
Phone 352-521-3919
Manager: HERBERT W. RHODE
35731 BLANTON ROAD
DADE CITY, FL 33523-6352
Phone 352-521-3919

Airport Operational Statistics

Aircraft based on the field: 1
Single engine airplanes: 1
    

Additional Remarks

220 FT TO 423 FT RADIO TOWERS ALL QUADRANTS AT A DISTANCE OF 1 TO 3 NM FROM ARPT.

Instrument Procedures

There are no published instrument procedures at 5FL0.

Some nearby airports with instrument procedures:

KZPH - Zephyrhills Municipal Airport (12 nm S)
KBKV - Brooksville-Tampa Bay Regional Airport (13 nm W)
KINF - Inverness Airport (24 nm N)
KVDF - Tampa Executive Airport (25 nm S)
KPCM - Plant City Airport (25 nm S)
 
Loc | Ops | Rwys | IFR | FBO | Links
Com | Nav | Svcs | Stats | Notes


 
Area around 5FL0 (Dusty Airpatch Airport)
 
Road maps at: MapQuest Bing Google
 
Aerial photo
No photo
 
Sectional chart

 
Airport distance calculator
Flying to Dusty Airpatch Airport? Find the distance to fly.

From to 5FL0

Sunrise and sunset
Times for 22-Jul-2017
 Local
(UTC-4)
 Zulu
(UTC)
Morning civil twilight06:2010:20
Sunrise06:4610:46
Sunset20:2400:24
Evening civil twilight20:5000:50

Current date and time
Zulu (UTC)  22-Jul-2017 15:55:58
Local (UTC-4)  22-Jul-2017 11:55:58
 
METAR
KZPH 
12nm S 
221535Z AUTO 23015G20KT 10SM TS SCT026 SCT045 BKN055 29/23 A3011 RMK AO2 LTG DSNT ALQS T02920230
KBKV 
12nm W 
221538Z 32005KT 4SM TSRA BR SCT024 BKN033 OVC110 25/23 A3011 RMK AO2 PK WND 28031/1525 WSHFT 1508 LTG DSNT NE AND SE AND W RAB12 TSB04 P0040 T02500228
TAF
KLAL 
29nm S 
221135Z 2212/2312 VRB04KT P6SM SCT025 SCT120 FM221500 21005KT P6SM VCTS SCT030CB BKN050 BKN120 FM222000 17006KT P6SM VCTS BKN045CB BKN120 FM230100 VRB03KT P6SM FEW030 SCT100 BKN250
KTPA 
31nm SW 
221316Z 2213/2312 VRB04KT P6SM VCTS SCT025CB SCT120 BKN250 TEMPO 2213/2214 3SM TSRA FEW015 BKN025CB FM221500 21006KT P6SM VCTS SCT030CB BKN050 BKN120 FM222000 23007KT P6SM VCTS SCT045CB BKN120 FM230100 VRB03KT P6SM FEW030 SCT100 BKN250
KLEE 
32nm NE 
221142Z 2212/2312 00000KT P6SM SCT250 FM221400 22005KT P6SM VCSH SCT025 SCT070 FM221600 22006KT P6SM VCTS SCT035CB BKN080 TEMPO 2217/2220 4SM TSRA BKN030CB BKN070 FM222000 26006KT P6SM VCSH BKN040 BKN100 FM230000 20003KT P6SM BKN250
NOTAMs
Click for the latest NOTAMs
NOTAMs are issued by the DoD/FAA and will open in a separate window not controlled by AirNav.

 

 
 

Would you like to see your business listed on this page?

 If your business provides an interesting product or service to pilots, flight crews, aircraft, or users of the Dusty Airpatch Airport, you should consider listing it here.  To start the listing process, click on the button below
 
Add a business
 

Other Pages about Dusty Airpatch Airport

Update a link
 
Copyright © AirNav, LLC. All rights reserved. Privacy Policy  Contact